JAL901 RJTT-ROAH
Flight info
| Callsign | JAL901 |
|---|---|
| Flight time | 2h 16m |
| Altitude | 40000 |
| Route | LAXAS Y56 TOHME Y54 KOHWA Y12 AYANO Y128 LAXEL Y52 TONAR Y525 IHEYA |
| Aircraft | A359/H-SDE2E3GHIJ3J4J5LM1ORWXY/LB1D1 |
Departure
| Time | 2026-04-15 22:01 |
|---|---|
| Airport | Tokyo Haneda International Airport (RJTT) |
Arrival
| Time | 2026-04-16 00:17 |
|---|---|
| Airport | Naha International Airport (ROAH) |
| Time | Latitude | Longitude | Altitude | Speed | Heading |
|---|---|---|---|---|---|
| 2026-04-15 21:42 | 35.54704 | 139.78366 | 29 ft | 0 kts | 57° |
| 2026-04-15 21:51 | 35.54704 | 139.78365 | 29 ft | 2 kts | 57° |
| 2026-04-15 21:51 | 35.54691 | 139.78342 | 29 ft | 5 kts | 58° |
| 2026-04-15 21:51 | 35.54671 | 139.78301 | 29 ft | 5 kts | 61° |
| 2026-04-15 21:51 | 35.54659 | 139.78269 | 29 ft | 3 kts | 74° |
| 2026-04-15 21:52 | 35.54656 | 139.78253 | 30 ft | 2 kts | 98° |
| 2026-04-15 21:52 | 35.54660 | 139.78241 | 28 ft | 2 kts | 135° |
| 2026-04-15 21:52 | 35.54668 | 139.78232 | 29 ft | 2 kts | 147° |
| 2026-04-15 21:52 | 35.54676 | 139.78226 | 30 ft | 0 kts | 149° |
| 2026-04-15 21:54 | 35.54675 | 139.78228 | 30 ft | 3 kts | 149° |
| 2026-04-15 21:54 | 35.54617 | 139.78247 | 31 ft | 8 kts | 199° |
| 2026-04-15 21:54 | 35.54565 | 139.78194 | 30 ft | 11 kts | 208° |
| 2026-04-15 21:54 | 35.54537 | 139.78198 | 30 ft | 4 kts | 154° |
| 2026-04-15 21:55 | 35.54430 | 139.78275 | 30 ft | 22 kts | 149° |
| 2026-04-15 21:55 | 35.54245 | 139.78400 | 30 ft | 29 kts | 148° |
| 2026-04-15 21:55 | 35.54091 | 139.78521 | 30 ft | 24 kts | 149° |
| 2026-04-15 21:55 | 35.53946 | 139.78621 | 30 ft | 25 kts | 151° |
| 2026-04-15 21:56 | 35.53793 | 139.78725 | 30 ft | 28 kts | 151° |
| 2026-04-15 21:56 | 35.53642 | 139.78866 | 30 ft | 27 kts | 138° |
| 2026-04-15 21:56 | 35.53508 | 139.79017 | 30 ft | 26 kts | 137° |
| 2026-04-15 21:56 | 35.53387 | 139.79169 | 30 ft | 24 kts | 120° |
| 2026-04-15 21:57 | 35.53410 | 139.79333 | 30 ft | 23 kts | 62° |
| 2026-04-15 21:57 | 35.53512 | 139.79547 | 30 ft | 32 kts | 60° |
| 2026-04-15 21:57 | 35.53617 | 139.79773 | 30 ft | 29 kts | 60° |
| 2026-04-15 21:57 | 35.53710 | 139.79969 | 30 ft | 22 kts | 72° |
| 2026-04-15 21:58 | 35.53640 | 139.80071 | 30 ft | 18 kts | 155° |
| 2026-04-15 21:58 | 35.53505 | 139.80158 | 30 ft | 27 kts | 145° |
| 2026-04-15 21:58 | 35.53323 | 139.80309 | 30 ft | 36 kts | 150° |
| 2026-04-15 21:58 | 35.53081 | 139.80475 | 30 ft | 42 kts | 151° |
| 2026-04-15 21:59 | 35.52890 | 139.80439 | 30 ft | 27 kts | 222° |
| 2026-04-15 21:59 | 35.52747 | 139.80306 | 29 ft | 22 kts | 223° |
| 2026-04-15 21:59 | 35.52644 | 139.80169 | 29 ft | 22 kts | 218° |
| 2026-04-15 21:59 | 35.52529 | 139.80207 | 30 ft | 19 kts | 139° |
| 2026-04-15 22:00 | 35.52439 | 139.80326 | 29 ft | 17 kts | 130° |
| 2026-04-15 22:00 | 35.52435 | 139.80375 | 29 ft | 6 kts | 63° |
| 2026-04-15 22:00 | 35.52455 | 139.80401 | 29 ft | 0 kts | 43° |
| 2026-04-15 22:00 | 35.52541 | 139.80500 | 29 ft | 55 kts | 43° |
| 2026-04-15 22:01 | 35.53036 | 139.81053 | 30 ft | 134 kts | 42° |
| 2026-04-15 22:01 | 35.53783 | 139.81933 | 641 ft | 150 kts | 46° |
| 2026-04-15 22:01 | 35.54540 | 139.82865 | 1503 ft | 161 kts | 44° |
| 2026-04-15 22:01 | 35.55331 | 139.83949 | 1868 ft | 187 kts | 56° |
| 2026-04-15 22:02 | 35.55591 | 139.85619 | 2312 ft | 217 kts | 94° |
| 2026-04-15 22:02 | 35.55295 | 139.87547 | 2570 ft | 242 kts | 101° |
| 2026-04-15 22:02 | 35.54893 | 139.89629 | 2958 ft | 257 kts | 100° |
| 2026-04-15 22:02 | 35.54401 | 139.91789 | 3697 ft | 263 kts | 108° |
| 2026-04-15 22:03 | 35.53368 | 139.93650 | 4460 ft | 278 kts | 136° |
| 2026-04-15 22:03 | 35.51589 | 139.94679 | 5049 ft | 294 kts | 172° |
| 2026-04-15 22:03 | 35.49536 | 139.94509 | 5614 ft | 301 kts | 194° |
| 2026-04-15 22:03 | 35.47477 | 139.93954 | 6234 ft | 304 kts | 196° |
| 2026-04-15 22:04 | 35.45521 | 139.93052 | 6988 ft | 297 kts | 217° |
| 2026-04-15 22:04 | 35.43991 | 139.91407 | 7719 ft | 292 kts | 233° |
| 2026-04-15 22:04 | 35.42637 | 139.89554 | 8373 ft | 292 kts | 234° |
| 2026-04-15 22:04 | 35.41293 | 139.87700 | 9115 ft | 290 kts | 233° |
| 2026-04-15 22:05 | 35.39943 | 139.85866 | 9868 ft | 289 kts | 233° |
| 2026-04-15 22:05 | 35.38584 | 139.84034 | 10382 ft | 295 kts | 233° |
| 2026-04-15 22:05 | 35.37171 | 139.82130 | 10631 ft | 309 kts | 232° |
| 2026-04-15 22:05 | 35.35686 | 139.80137 | 10872 ft | 324 kts | 232° |
| 2026-04-15 22:06 | 35.34132 | 139.78060 | 11096 ft | 337 kts | 232° |
| 2026-04-15 22:06 | 35.32513 | 139.75910 | 11311 ft | 348 kts | 231° |
| 2026-04-15 22:06 | 35.30771 | 139.73808 | 11652 ft | 355 kts | 225° |
| 2026-04-15 22:06 | 35.28899 | 139.71835 | 12180 ft | 355 kts | 224° |
| 2026-04-15 22:07 | 35.27006 | 139.69874 | 12690 ft | 357 kts | 224° |
| 2026-04-15 22:07 | 35.25109 | 139.67907 | 13170 ft | 358 kts | 225° |
| 2026-04-15 22:07 | 35.23211 | 139.65929 | 13642 ft | 359 kts | 225° |
| 2026-04-15 22:07 | 35.21307 | 139.63944 | 14058 ft | 360 kts | 225° |
| 2026-04-15 22:08 | 35.19396 | 139.61951 | 14456 ft | 362 kts | 225° |
| 2026-04-15 22:08 | 35.17505 | 139.59981 | 14867 ft | 363 kts | 225° |
| 2026-04-15 22:08 | 35.15578 | 139.57977 | 15277 ft | 364 kts | 225° |
| 2026-04-15 22:08 | 35.13649 | 139.55970 | 15685 ft | 365 kts | 225° |
| 2026-04-15 22:09 | 35.11705 | 139.53947 | 16094 ft | 367 kts | 225° |
| 2026-04-15 22:09 | 35.09775 | 139.51894 | 16513 ft | 367 kts | 228° |
| 2026-04-15 22:09 | 35.08120 | 139.49543 | 16919 ft | 364 kts | 241° |
| 2026-04-15 22:09 | 35.07077 | 139.46750 | 17355 ft | 362 kts | 257° |
| 2026-04-15 22:10 | 35.06511 | 139.43753 | 17695 ft | 364 kts | 262° |
| 2026-04-15 22:10 | 35.06028 | 139.40707 | 18088 ft | 365 kts | 262° |
| 2026-04-15 22:10 | 35.05541 | 139.37661 | 18480 ft | 365 kts | 262° |
| 2026-04-15 22:10 | 35.05053 | 139.34665 | 18867 ft | 365 kts | 261° |
| 2026-04-15 22:11 | 35.04554 | 139.31631 | 19251 ft | 364 kts | 262° |
| 2026-04-15 22:11 | 35.04052 | 139.28601 | 19645 ft | 364 kts | 261° |
| 2026-04-15 22:11 | 35.03549 | 139.25578 | 20018 ft | 364 kts | 262° |
| 2026-04-15 22:11 | 35.03215 | 139.23575 | 20263 ft | 364 kts | 261° |
| 2026-04-15 22:12 | 35.02729 | 139.20543 | 20639 ft | 363 kts | 262° |
| 2026-04-15 22:12 | 35.02262 | 139.17514 | 20993 ft | 364 kts | 262° |
| 2026-04-15 22:12 | 35.01789 | 139.14476 | 21326 ft | 364 kts | 262° |
| 2026-04-15 22:12 | 35.01304 | 139.11435 | 21669 ft | 364 kts | 262° |
| 2026-04-15 22:13 | 35.00644 | 139.07394 | 21935 ft | 370 kts | 262° |
| 2026-04-15 22:13 | 35.00295 | 139.05312 | 22135 ft | 370 kts | 262° |
| 2026-04-15 22:13 | 34.99773 | 139.02235 | 22462 ft | 371 kts | 262° |
| 2026-04-15 22:13 | 34.99292 | 138.99150 | 22856 ft | 369 kts | 265° |
| 2026-04-15 22:14 | 34.99014 | 138.96045 | 23208 ft | 369 kts | 268° |
| 2026-04-15 22:14 | 34.98808 | 138.92920 | 23483 ft | 370 kts | 268° |
| 2026-04-15 22:14 | 34.98634 | 138.89784 | 23719 ft | 371 kts | 269° |
| 2026-04-15 22:14 | 34.98477 | 138.86678 | 23959 ft | 372 kts | 269° |
| 2026-04-15 22:15 | 34.98323 | 138.83544 | 24301 ft | 369 kts | 269° |
| 2026-04-15 22:15 | 34.98171 | 138.80422 | 24575 ft | 369 kts | 269° |
| 2026-04-15 22:15 | 34.98015 | 138.77287 | 24812 ft | 371 kts | 269° |
| 2026-04-15 22:15 | 34.97850 | 138.74153 | 25078 ft | 371 kts | 269° |
| 2026-04-15 22:16 | 34.97684 | 138.71015 | 25319 ft | 371 kts | 269° |
| 2026-04-15 22:16 | 34.97517 | 138.67862 | 25557 ft | 372 kts | 269° |
| 2026-04-15 22:16 | 34.97348 | 138.64711 | 25774 ft | 373 kts | 269° |
| 2026-04-15 22:16 | 34.97176 | 138.61576 | 26183 ft | 369 kts | 269° |
| 2026-04-15 22:17 | 34.97007 | 138.58445 | 26449 ft | 370 kts | 269° |
| 2026-04-15 22:17 | 34.96839 | 138.55306 | 26665 ft | 372 kts | 269° |
| 2026-04-15 22:17 | 34.96668 | 138.52152 | 26895 ft | 373 kts | 269° |
| 2026-04-15 22:17 | 34.96497 | 138.49011 | 26999 ft | 379 kts | 269° |
| 2026-04-15 22:18 | 34.96318 | 138.45792 | 27191 ft | 381 kts | 269° |
| 2026-04-15 22:18 | 34.96136 | 138.42564 | 27511 ft | 381 kts | 269° |
| 2026-04-15 22:18 | 34.95954 | 138.39346 | 27857 ft | 380 kts | 269° |
| 2026-04-15 22:18 | 34.95774 | 138.36126 | 28158 ft | 381 kts | 269° |
| 2026-04-15 22:19 | 34.95595 | 138.32896 | 28413 ft | 382 kts | 269° |
| 2026-04-15 22:19 | 34.95412 | 138.29660 | 28654 ft | 383 kts | 269° |
| 2026-04-15 22:19 | 34.95231 | 138.26410 | 28942 ft | 385 kts | 269° |
| 2026-04-15 22:19 | 34.95046 | 138.23151 | 29233 ft | 386 kts | 269° |
| 2026-04-15 22:20 | 34.94858 | 138.19918 | 29553 ft | 386 kts | 269° |
| 2026-04-15 22:20 | 34.94668 | 138.16665 | 30069 ft | 384 kts | 270° |
| 2026-04-15 22:20 | 34.94485 | 138.13407 | 30258 ft | 388 kts | 270° |
| 2026-04-15 22:20 | 34.94296 | 138.10113 | 30480 ft | 391 kts | 269° |
| 2026-04-15 22:21 | 34.94099 | 138.06798 | 30729 ft | 392 kts | 269° |
| 2026-04-15 22:21 | 34.93897 | 138.03480 | 30913 ft | 394 kts | 269° |
| 2026-04-15 22:21 | 34.93694 | 138.00146 | 31104 ft | 395 kts | 269° |
| 2026-04-15 22:21 | 34.93491 | 137.96803 | 31375 ft | 396 kts | 269° |
| 2026-04-15 22:22 | 34.93294 | 137.93439 | 31560 ft | 399 kts | 269° |
| 2026-04-15 22:22 | 34.93095 | 137.90063 | 31789 ft | 399 kts | 269° |
| 2026-04-15 22:22 | 34.92895 | 137.86685 | 32025 ft | 401 kts | 269° |
| 2026-04-15 22:22 | 34.92692 | 137.83285 | 32231 ft | 402 kts | 269° |
| 2026-04-15 22:23 | 34.92488 | 137.79909 | 32412 ft | 404 kts | 269° |
| 2026-04-15 22:23 | 34.92277 | 137.76491 | 32612 ft | 406 kts | 270° |
| 2026-04-15 22:23 | 34.92066 | 137.73056 | 32799 ft | 407 kts | 270° |
| 2026-04-15 22:23 | 34.91780 | 137.69607 | 32951 ft | 410 kts | 266° |
| 2026-04-15 22:24 | 34.91193 | 137.66191 | 33215 ft | 411 kts | 260° |
| 2026-04-15 22:24 | 34.90327 | 137.62870 | 33559 ft | 410 kts | 258° |
| 2026-04-15 22:24 | 34.89402 | 137.59623 | 33864 ft | 410 kts | 257° |
| 2026-04-15 22:24 | 34.88437 | 137.56351 | 34049 ft | 410 kts | 257° |
| 2026-04-15 22:25 | 34.87454 | 137.53083 | 34284 ft | 409 kts | 257° |
| 2026-04-15 22:25 | 34.86469 | 137.49834 | 34564 ft | 408 kts | 257° |
| 2026-04-15 22:25 | 34.85489 | 137.46602 | 34829 ft | 407 kts | 257° |
| 2026-04-15 22:25 | 34.84532 | 137.43371 | 35081 ft | 405 kts | 257° |
| 2026-04-15 22:26 | 34.83603 | 137.40130 | 35300 ft | 404 kts | 257° |
| 2026-04-15 22:26 | 34.82691 | 137.36900 | 35505 ft | 403 kts | 258° |
| 2026-04-15 22:26 | 34.81780 | 137.33672 | 35752 ft | 402 kts | 258° |
| 2026-04-15 22:26 | 34.80869 | 137.30453 | 35976 ft | 402 kts | 257° |
| 2026-04-15 22:27 | 34.79953 | 137.27237 | 36205 ft | 401 kts | 257° |
| 2026-04-15 22:27 | 34.79033 | 137.24025 | 36430 ft | 400 kts | 257° |
| 2026-04-15 22:27 | 34.78124 | 137.20871 | 36654 ft | 399 kts | 257° |
| 2026-04-15 22:27 | 34.77205 | 137.17689 | 36876 ft | 399 kts | 257° |
| 2026-04-15 22:28 | 34.76282 | 137.14505 | 37180 ft | 398 kts | 257° |
| 2026-04-15 22:28 | 34.75363 | 137.11338 | 37384 ft | 397 kts | 257° |
| 2026-04-15 22:28 | 34.74443 | 137.08168 | 37612 ft | 396 kts | 257° |
| 2026-04-15 22:28 | 34.73526 | 137.05010 | 37822 ft | 396 kts | 257° |
| 2026-04-15 22:29 | 34.72563 | 137.01871 | 37988 ft | 398 kts | 254° |
| 2026-04-15 22:29 | 34.71345 | 136.98833 | 38125 ft | 402 kts | 249° |
| 2026-04-15 22:29 | 34.69823 | 136.95964 | 38309 ft | 407 kts | 243° |
| 2026-04-15 22:29 | 34.67985 | 136.93319 | 38545 ft | 413 kts | 237° |
| 2026-04-15 22:30 | 34.65848 | 136.90950 | 38716 ft | 419 kts | 231° |
| 2026-04-15 22:30 | 34.63592 | 136.88775 | 38929 ft | 417 kts | 230° |
| 2026-04-15 22:30 | 34.61285 | 136.86644 | 39177 ft | 415 kts | 229° |
| 2026-04-15 22:31 | 34.56658 | 136.82431 | 39357 ft | 416 kts | 229° |
| 2026-04-15 22:31 | 34.54344 | 136.80320 | 39480 ft | 417 kts | 229° |
| 2026-04-15 22:31 | 34.52031 | 136.78201 | 39580 ft | 416 kts | 229° |
| 2026-04-15 22:32 | 34.47414 | 136.73958 | 39810 ft | 416 kts | 229° |
| 2026-04-15 22:32 | 34.42807 | 136.69717 | 39912 ft | 415 kts | 229° |
| 2026-04-15 22:33 | 34.38206 | 136.65481 | 39913 ft | 416 kts | 229° |
| 2026-04-15 22:33 | 34.33598 | 136.61250 | 39920 ft | 415 kts | 229° |
| 2026-04-15 22:34 | 34.28985 | 136.57019 | 39916 ft | 415 kts | 229° |
| 2026-04-15 22:34 | 34.24449 | 136.52769 | 39919 ft | 415 kts | 230° |
| 2026-04-15 22:35 | 34.19901 | 136.48482 | 39926 ft | 415 kts | 230° |
| 2026-04-15 22:35 | 34.15337 | 136.44197 | 39920 ft | 415 kts | 230° |
| 2026-04-15 22:36 | 34.10737 | 136.39956 | 39927 ft | 419 kts | 227° |
| 2026-04-15 22:36 | 34.05616 | 136.36344 | 39912 ft | 429 kts | 221° |
| 2026-04-15 22:37 | 34.00331 | 136.32991 | 39916 ft | 430 kts | 221° |
| 2026-04-15 22:37 | 33.95001 | 136.29657 | 39923 ft | 432 kts | 221° |
| 2026-04-15 22:38 | 33.89691 | 136.26330 | 39918 ft | 432 kts | 221° |
| 2026-04-15 22:38 | 33.84356 | 136.22980 | 39918 ft | 432 kts | 221° |
| 2026-04-15 22:39 | 33.79022 | 136.19630 | 39915 ft | 433 kts | 221° |
| 2026-04-15 22:39 | 33.73687 | 136.16285 | 39901 ft | 433 kts | 221° |
| 2026-04-15 22:40 | 33.68350 | 136.12942 | 39917 ft | 432 kts | 221° |
| 2026-04-15 22:40 | 33.63013 | 136.09606 | 39917 ft | 432 kts | 221° |
| 2026-04-15 22:41 | 33.55003 | 136.04608 | 39916 ft | 433 kts | 221° |
| 2026-04-15 22:41 | 33.49657 | 136.01277 | 39902 ft | 433 kts | 221° |
| 2026-04-15 22:42 | 33.44316 | 135.97954 | 39920 ft | 432 kts | 221° |
| 2026-04-15 22:42 | 33.38977 | 135.94636 | 39919 ft | 432 kts | 221° |
| 2026-04-15 22:43 | 33.33641 | 135.91325 | 39919 ft | 432 kts | 221° |
| 2026-04-15 22:43 | 33.28302 | 135.88016 | 39919 ft | 432 kts | 221° |
| 2026-04-15 22:44 | 33.22996 | 135.84734 | 39891 ft | 432 kts | 221° |
| 2026-04-15 22:44 | 33.17658 | 135.81437 | 39926 ft | 432 kts | 221° |
| 2026-04-15 22:45 | 33.12327 | 135.78147 | 39917 ft | 432 kts | 221° |
| 2026-04-15 22:45 | 33.06982 | 135.74855 | 39927 ft | 432 kts | 221° |
| 2026-04-15 22:46 | 33.01643 | 135.71569 | 39930 ft | 432 kts | 221° |
| 2026-04-15 22:46 | 32.96303 | 135.68287 | 39906 ft | 431 kts | 221° |
| 2026-04-15 22:47 | 32.90960 | 135.65008 | 39931 ft | 432 kts | 221° |
| 2026-04-15 22:47 | 32.85622 | 135.61737 | 39931 ft | 432 kts | 221° |
| 2026-04-15 22:48 | 32.80282 | 135.58469 | 39931 ft | 432 kts | 221° |
| 2026-04-15 22:48 | 32.74940 | 135.55203 | 39929 ft | 432 kts | 221° |
| 2026-04-15 22:49 | 32.69627 | 135.51961 | 39915 ft | 432 kts | 221° |
| 2026-04-15 22:49 | 32.64266 | 135.48694 | 39933 ft | 432 kts | 221° |
| 2026-04-15 22:50 | 32.58913 | 135.45437 | 39926 ft | 432 kts | 221° |
| 2026-04-15 22:50 | 32.53559 | 135.42182 | 39924 ft | 432 kts | 221° |
| 2026-04-15 22:51 | 32.48203 | 135.38932 | 39924 ft | 432 kts | 221° |
| 2026-04-15 22:51 | 32.42846 | 135.35685 | 39915 ft | 433 kts | 221° |
| 2026-04-15 22:52 | 32.37479 | 135.32434 | 39936 ft | 434 kts | 221° |
| 2026-04-15 22:52 | 32.32091 | 135.29177 | 39936 ft | 434 kts | 221° |
| 2026-04-15 22:53 | 32.26744 | 135.25951 | 39935 ft | 434 kts | 220° |
| 2026-04-15 22:53 | 32.21363 | 135.22707 | 39939 ft | 434 kts | 221° |
| 2026-04-15 22:54 | 32.15981 | 135.19466 | 39928 ft | 434 kts | 220° |
| 2026-04-15 22:54 | 32.10806 | 135.15939 | 39941 ft | 420 kts | 229° |
| 2026-04-15 22:55 | 32.08598 | 135.13755 | 39938 ft | 409 kts | 236° |
| 2026-04-15 22:55 | 32.06700 | 135.11301 | 39932 ft | 402 kts | 241° |
| 2026-04-15 22:55 | 32.03258 | 135.06139 | 39936 ft | 404 kts | 243° |
| 2026-04-15 22:56 | 31.99863 | 135.00849 | 39939 ft | 404 kts | 243° |
| 2026-04-15 22:56 | 31.96448 | 134.95569 | 39941 ft | 404 kts | 243° |
| 2026-04-15 22:57 | 31.93596 | 134.91203 | 39944 ft | 404 kts | 242° |
| 2026-04-15 22:57 | 31.89594 | 134.85100 | 39945 ft | 406 kts | 242° |
| 2026-04-15 22:58 | 31.86720 | 134.80723 | 39943 ft | 406 kts | 242° |
| 2026-04-15 22:58 | 31.83262 | 134.75465 | 39947 ft | 406 kts | 242° |
| 2026-04-15 22:59 | 31.79800 | 134.70209 | 39951 ft | 406 kts | 242° |
| 2026-04-15 22:59 | 31.76336 | 134.64956 | 39951 ft | 406 kts | 242° |
| 2026-04-15 23:00 | 31.72890 | 134.59737 | 39961 ft | 406 kts | 242° |
| 2026-04-15 23:00 | 31.69427 | 134.54498 | 39935 ft | 405 kts | 242° |
| 2026-04-15 23:01 | 31.65958 | 134.49252 | 39952 ft | 407 kts | 242° |
| 2026-04-15 23:01 | 31.62480 | 134.44004 | 39958 ft | 407 kts | 242° |
| 2026-04-15 23:02 | 31.59025 | 134.38799 | 39963 ft | 406 kts | 242° |
| 2026-04-15 23:02 | 31.55542 | 134.33564 | 39957 ft | 408 kts | 242° |
| 2026-04-15 23:03 | 31.52043 | 134.28302 | 39963 ft | 409 kts | 242° |
| 2026-04-15 23:03 | 31.48552 | 134.23064 | 39960 ft | 409 kts | 242° |
| 2026-04-15 23:04 | 31.45046 | 134.17814 | 39946 ft | 408 kts | 242° |
| 2026-04-15 23:04 | 31.41560 | 134.12595 | 39963 ft | 409 kts | 242° |
| 2026-04-15 23:05 | 31.38046 | 134.07339 | 39963 ft | 410 kts | 242° |
| 2026-04-15 23:05 | 31.34519 | 134.02074 | 39979 ft | 410 kts | 242° |
| 2026-04-15 23:06 | 31.31026 | 133.96871 | 39965 ft | 409 kts | 242° |
| 2026-04-15 23:06 | 31.27507 | 133.91632 | 39966 ft | 409 kts | 242° |
| 2026-04-15 23:07 | 31.23979 | 133.86387 | 39966 ft | 410 kts | 242° |
| 2026-04-15 23:07 | 31.20476 | 133.81188 | 39952 ft | 409 kts | 242° |
| 2026-04-15 23:08 | 31.16936 | 133.75941 | 39966 ft | 411 kts | 242° |
| 2026-04-15 23:08 | 31.13392 | 133.70696 | 39968 ft | 411 kts | 242° |
| 2026-04-15 23:09 | 31.09845 | 133.65454 | 39966 ft | 411 kts | 242° |
| 2026-04-15 23:09 | 31.06310 | 133.60235 | 39964 ft | 413 kts | 242° |
| 2026-04-15 23:10 | 31.02738 | 133.54967 | 39966 ft | 414 kts | 242° |
| 2026-04-15 23:10 | 30.99163 | 133.49699 | 39968 ft | 414 kts | 242° |
| 2026-04-15 23:11 | 30.95609 | 133.44469 | 39962 ft | 414 kts | 241° |
| 2026-04-15 23:11 | 30.92020 | 133.39192 | 39964 ft | 416 kts | 242° |
| 2026-04-15 23:12 | 30.88423 | 133.33913 | 39963 ft | 416 kts | 241° |
| 2026-04-15 23:12 | 30.84820 | 133.28634 | 39962 ft | 416 kts | 241° |
| 2026-04-15 23:13 | 30.81214 | 133.23353 | 39963 ft | 417 kts | 241° |
| 2026-04-15 23:13 | 30.77609 | 133.18085 | 39967 ft | 419 kts | 241° |
| 2026-04-15 23:14 | 30.73973 | 133.12781 | 39962 ft | 419 kts | 241° |
| 2026-04-15 23:14 | 30.70330 | 133.07472 | 39943 ft | 419 kts | 240° |
| 2026-04-15 23:15 | 30.66681 | 133.02156 | 39976 ft | 421 kts | 240° |
| 2026-04-15 23:15 | 30.63024 | 132.96840 | 39965 ft | 421 kts | 241° |
| 2026-04-15 23:16 | 30.59393 | 132.91570 | 39963 ft | 420 kts | 241° |
| 2026-04-15 23:16 | 30.55733 | 132.86263 | 39964 ft | 420 kts | 241° |
| 2026-04-15 23:17 | 30.52074 | 132.80964 | 39962 ft | 420 kts | 240° |
| 2026-04-15 23:17 | 30.48413 | 132.75669 | 39963 ft | 420 kts | 240° |
| 2026-04-15 23:18 | 30.44756 | 132.70387 | 39932 ft | 420 kts | 240° |
| 2026-04-15 23:18 | 30.41083 | 132.65087 | 39963 ft | 423 kts | 240° |
| 2026-04-15 23:19 | 30.37390 | 132.59767 | 39969 ft | 423 kts | 240° |
| 2026-04-15 23:19 | 30.33717 | 132.54484 | 39963 ft | 423 kts | 240° |
| 2026-04-15 23:20 | 30.30021 | 132.49175 | 39958 ft | 424 kts | 240° |
| 2026-04-15 23:20 | 30.26315 | 132.43858 | 39964 ft | 424 kts | 240° |
| 2026-04-15 23:21 | 30.22600 | 132.38538 | 39969 ft | 424 kts | 240° |
| 2026-04-15 23:21 | 30.18911 | 132.33260 | 39966 ft | 424 kts | 240° |
| 2026-04-15 23:22 | 30.15205 | 132.27962 | 39961 ft | 424 kts | 240° |
| 2026-04-15 23:22 | 30.11485 | 132.22652 | 39964 ft | 425 kts | 239° |
| 2026-04-15 23:23 | 30.07765 | 132.17352 | 39972 ft | 424 kts | 240° |
| 2026-04-15 23:23 | 30.04060 | 132.12083 | 39940 ft | 424 kts | 239° |
| 2026-04-15 23:24 | 30.00334 | 132.06785 | 39954 ft | 425 kts | 239° |
| 2026-04-15 23:24 | 29.96603 | 132.01490 | 39960 ft | 425 kts | 239° |
| 2026-04-15 23:25 | 29.92867 | 131.96195 | 39965 ft | 425 kts | 239° |
| 2026-04-15 23:25 | 29.89138 | 131.90914 | 39966 ft | 425 kts | 239° |
| 2026-04-15 23:26 | 29.85424 | 131.85656 | 39965 ft | 425 kts | 239° |
| 2026-04-15 23:26 | 29.81682 | 131.80370 | 39958 ft | 425 kts | 239° |
| 2026-04-15 23:27 | 29.77868 | 131.75137 | 39963 ft | 426 kts | 238° |
| 2026-04-15 23:27 | 29.74001 | 131.69952 | 39962 ft | 427 kts | 238° |
| 2026-04-15 23:28 | 29.70132 | 131.64759 | 39963 ft | 427 kts | 238° |
| 2026-04-15 23:28 | 29.66270 | 131.59558 | 39965 ft | 427 kts | 238° |
| 2026-04-15 23:29 | 29.62437 | 131.54390 | 39946 ft | 427 kts | 238° |
| 2026-04-15 23:29 | 29.58575 | 131.49187 | 39963 ft | 427 kts | 238° |
| 2026-04-15 23:30 | 29.54710 | 131.43989 | 39963 ft | 427 kts | 238° |
| 2026-04-15 23:30 | 29.50838 | 131.38787 | 39963 ft | 428 kts | 238° |
| 2026-04-15 23:31 | 29.46993 | 131.33630 | 39968 ft | 428 kts | 238° |
| 2026-04-15 23:31 | 29.43118 | 131.28437 | 39966 ft | 428 kts | 238° |
| 2026-04-15 23:32 | 29.39234 | 131.23242 | 39964 ft | 428 kts | 238° |
| 2026-04-15 23:32 | 29.35356 | 131.18061 | 39962 ft | 428 kts | 238° |
| 2026-04-15 23:33 | 29.31493 | 131.12909 | 39975 ft | 429 kts | 238° |
| 2026-04-15 23:33 | 29.27607 | 131.07735 | 39963 ft | 428 kts | 238° |
| 2026-04-15 23:34 | 29.23723 | 131.02565 | 39960 ft | 428 kts | 238° |
| 2026-04-15 23:36 | 29.10109 | 130.84502 | 39962 ft | 427 kts | 238° |
| 2026-04-15 23:36 | 29.06350 | 130.79528 | 39962 ft | 427 kts | 238° |
| 2026-04-15 23:37 | 29.02461 | 130.74386 | 39956 ft | 428 kts | 237° |
| 2026-04-15 23:37 | 28.98565 | 130.69242 | 39960 ft | 428 kts | 237° |
| 2026-04-15 23:38 | 28.94666 | 130.64104 | 39960 ft | 428 kts | 237° |
| 2026-04-15 23:38 | 28.90759 | 130.58958 | 39960 ft | 428 kts | 237° |
| 2026-04-15 23:39 | 28.86879 | 130.53854 | 39958 ft | 428 kts | 237° |
| 2026-04-15 23:39 | 28.82971 | 130.48722 | 39950 ft | 428 kts | 237° |
| 2026-04-15 23:40 | 28.79062 | 130.43593 | 39972 ft | 428 kts | 237° |
| 2026-04-15 23:40 | 28.75143 | 130.38461 | 39972 ft | 428 kts | 237° |
| 2026-04-15 23:41 | 28.71247 | 130.33360 | 39966 ft | 429 kts | 237° |
| 2026-04-15 23:41 | 28.67318 | 130.28224 | 39966 ft | 430 kts | 237° |
| 2026-04-15 23:42 | 28.63384 | 130.23089 | 39966 ft | 430 kts | 237° |
| 2026-04-15 23:42 | 28.59448 | 130.17960 | 39963 ft | 430 kts | 237° |
| 2026-04-15 23:43 | 28.55525 | 130.12851 | 39965 ft | 431 kts | 237° |
| 2026-04-15 23:43 | 28.51570 | 130.07709 | 39966 ft | 431 kts | 237° |
| 2026-04-15 23:44 | 28.47607 | 130.02561 | 39972 ft | 431 kts | 237° |
| 2026-04-15 23:44 | 28.43679 | 129.97465 | 39944 ft | 431 kts | 237° |
| 2026-04-15 23:45 | 28.39710 | 129.92323 | 39967 ft | 432 kts | 236° |
| 2026-04-15 23:45 | 28.35734 | 129.87177 | 39965 ft | 433 kts | 236° |
| 2026-04-15 23:46 | 28.31775 | 129.82060 | 39966 ft | 433 kts | 236° |
| 2026-04-15 23:46 | 28.27803 | 129.76935 | 39942 ft | 432 kts | 236° |
| 2026-04-15 23:47 | 28.23826 | 129.71804 | 39970 ft | 433 kts | 236° |
| 2026-04-15 23:47 | 28.20518 | 129.67544 | 39970 ft | 433 kts | 236° |
| 2026-04-15 23:48 | 28.16528 | 129.62413 | 39973 ft | 433 kts | 236° |
| 2026-04-15 23:48 | 28.12540 | 129.57293 | 39985 ft | 433 kts | 236° |
| 2026-04-15 23:49 | 28.07902 | 129.51339 | 39974 ft | 434 kts | 236° |
| 2026-04-15 23:49 | 28.04552 | 129.47045 | 39977 ft | 434 kts | 236° |
| 2026-04-15 23:50 | 28.00571 | 129.41951 | 39976 ft | 434 kts | 236° |
| 2026-04-15 23:50 | 27.96566 | 129.36831 | 39980 ft | 434 kts | 236° |
| 2026-04-15 23:51 | 27.90545 | 129.29142 | 39979 ft | 435 kts | 236° |
| 2026-04-15 23:51 | 27.86552 | 129.24047 | 39980 ft | 435 kts | 236° |
| 2026-04-15 23:52 | 27.82527 | 129.18922 | 39977 ft | 435 kts | 236° |
| 2026-04-15 23:52 | 27.78499 | 129.13803 | 39975 ft | 436 kts | 236° |
| 2026-04-15 23:53 | 27.74458 | 129.08675 | 39978 ft | 437 kts | 236° |
| 2026-04-15 23:53 | 27.70443 | 129.03584 | 39979 ft | 437 kts | 236° |
| 2026-04-15 23:54 | 27.66406 | 128.98471 | 39977 ft | 437 kts | 236° |
| 2026-04-15 23:54 | 27.62362 | 128.93357 | 39983 ft | 436 kts | 236° |
| 2026-04-15 23:55 | 27.58309 | 128.88240 | 39978 ft | 436 kts | 236° |
| 2026-04-15 23:55 | 27.54262 | 128.83135 | 39970 ft | 436 kts | 236° |
| 2026-04-15 23:56 | 27.50218 | 128.78040 | 39967 ft | 436 kts | 236° |
| 2026-04-15 23:56 | 27.46199 | 128.72977 | 39968 ft | 436 kts | 236° |
| 2026-04-15 23:57 | 27.42525 | 128.67610 | 39958 ft | 429 kts | 244° |
| 2026-04-15 23:57 | 27.39412 | 128.61860 | 39982 ft | 430 kts | 245° |
| 2026-04-15 23:58 | 27.36373 | 128.56042 | 39985 ft | 430 kts | 246° |
| 2026-04-15 23:58 | 27.33341 | 128.50243 | 39981 ft | 430 kts | 245° |
| 2026-04-15 23:59 | 27.30287 | 128.44438 | 39981 ft | 431 kts | 245° |
| 2026-04-15 23:59 | 27.27245 | 128.38675 | 39913 ft | 429 kts | 245° |
| 2026-04-16 00:00 | 27.25726 | 128.35805 | 39324 ft | 426 kts | 245° |
| 2026-04-16 00:00 | 27.24203 | 128.32934 | 38472 ft | 430 kts | 242° |
| 2026-04-16 00:00 | 27.22600 | 128.30074 | 37531 ft | 434 kts | 241° |
| 2026-04-16 00:00 | 27.20963 | 128.27208 | 36605 ft | 438 kts | 242° |
| 2026-04-16 00:01 | 27.19327 | 128.24308 | 35693 ft | 441 kts | 242° |
| 2026-04-16 00:01 | 27.17700 | 128.21360 | 34795 ft | 444 kts | 243° |
| 2026-04-16 00:01 | 27.16022 | 128.18425 | 33935 ft | 449 kts | 239° |
| 2026-04-16 00:01 | 27.14054 | 128.15655 | 32848 ft | 458 kts | 232° |
| 2026-04-16 00:02 | 27.11729 | 128.13154 | 31762 ft | 468 kts | 225° |
| 2026-04-16 00:02 | 27.09041 | 128.11016 | 30687 ft | 479 kts | 217° |
| 2026-04-16 00:02 | 27.06050 | 128.09379 | 29583 ft | 493 kts | 206° |
| 2026-04-16 00:02 | 27.02709 | 128.08321 | 28477 ft | 501 kts | 199° |
| 2026-04-16 00:03 | 26.99310 | 128.07450 | 27516 ft | 500 kts | 199° |
| 2026-04-16 00:03 | 26.95927 | 128.06599 | 26643 ft | 497 kts | 198° |
| 2026-04-16 00:03 | 26.92554 | 128.05744 | 25821 ft | 494 kts | 198° |
| 2026-04-16 00:03 | 26.89212 | 128.04892 | 25085 ft | 490 kts | 198° |
| 2026-04-16 00:04 | 26.85902 | 128.04046 | 24376 ft | 485 kts | 198° |
| 2026-04-16 00:04 | 26.82626 | 128.03207 | 23667 ft | 481 kts | 198° |
| 2026-04-16 00:04 | 26.79377 | 128.02373 | 22829 ft | 477 kts | 198° |
| 2026-04-16 00:04 | 26.76188 | 128.01558 | 21790 ft | 461 kts | 198° |
| 2026-04-16 00:05 | 26.73085 | 128.00764 | 20271 ft | 455 kts | 197° |
| 2026-04-16 00:05 | 26.70020 | 127.99977 | 18833 ft | 449 kts | 197° |
| 2026-04-16 00:05 | 26.66992 | 127.99200 | 17382 ft | 442 kts | 197° |
| 2026-04-16 00:05 | 26.64060 | 127.98450 | 16086 ft | 432 kts | 197° |
| 2026-04-16 00:06 | 26.61214 | 127.97725 | 15443 ft | 407 kts | 197° |
| 2026-04-16 00:06 | 26.58465 | 127.97022 | 14822 ft | 405 kts | 197° |
| 2026-04-16 00:06 | 26.55724 | 127.96317 | 14130 ft | 404 kts | 197° |
| 2026-04-16 00:06 | 26.52979 | 127.95612 | 13407 ft | 404 kts | 196° |
| 2026-04-16 00:07 | 26.50247 | 127.94913 | 12720 ft | 400 kts | 196° |
| 2026-04-16 00:07 | 26.47548 | 127.94224 | 12044 ft | 396 kts | 196° |
| 2026-04-16 00:07 | 26.44873 | 127.93541 | 11438 ft | 392 kts | 196° |
| 2026-04-16 00:07 | 26.42244 | 127.92872 | 11119 ft | 380 kts | 196° |
| 2026-04-16 00:08 | 26.39738 | 127.92194 | 11032 ft | 361 kts | 200° |
| 2026-04-16 00:08 | 26.37423 | 127.91197 | 10881 ft | 355 kts | 207° |
| 2026-04-16 00:08 | 26.35182 | 127.90060 | 10261 ft | 353 kts | 208° |
| 2026-04-16 00:08 | 26.32963 | 127.88911 | 9754 ft | 348 kts | 208° |
| 2026-04-16 00:09 | 26.30808 | 127.87802 | 9484 ft | 334 kts | 208° |
| 2026-04-16 00:09 | 26.28780 | 127.86764 | 9144 ft | 309 kts | 208° |
| 2026-04-16 00:09 | 26.26892 | 127.85799 | 8523 ft | 297 kts | 208° |
| 2026-04-16 00:09 | 26.25056 | 127.84860 | 8041 ft | 284 kts | 208° |
| 2026-04-16 00:10 | 26.23256 | 127.83937 | 7610 ft | 287 kts | 208° |
| 2026-04-16 00:10 | 26.21448 | 127.83011 | 7210 ft | 285 kts | 208° |
| 2026-04-16 00:10 | 26.19652 | 127.82095 | 6825 ft | 282 kts | 208° |
| 2026-04-16 00:10 | 26.17873 | 127.81187 | 6442 ft | 280 kts | 208° |
| 2026-04-16 00:11 | 26.16108 | 127.80284 | 6041 ft | 278 kts | 208° |
| 2026-04-16 00:11 | 26.14351 | 127.79391 | 5660 ft | 276 kts | 207° |
| 2026-04-16 00:11 | 26.12613 | 127.78504 | 5259 ft | 274 kts | 207° |
| 2026-04-16 00:11 | 26.10884 | 127.77624 | 4895 ft | 273 kts | 207° |
| 2026-04-16 00:12 | 26.09161 | 127.76747 | 4511 ft | 272 kts | 207° |
| 2026-04-16 00:12 | 26.07445 | 127.75863 | 4144 ft | 270 kts | 208° |
| 2026-04-16 00:12 | 26.05958 | 127.74689 | 3767 ft | 265 kts | 229° |
| 2026-04-16 00:12 | 26.05104 | 127.72908 | 3416 ft | 257 kts | 258° |
| 2026-04-16 00:13 | 26.04905 | 127.70959 | 3000 ft | 252 kts | 268° |
| 2026-04-16 00:13 | 26.04847 | 127.69100 | 2740 ft | 235 kts | 269° |
| 2026-04-16 00:13 | 26.04800 | 127.67334 | 2364 ft | 224 kts | 269° |
| 2026-04-16 00:13 | 26.04910 | 127.65664 | 2071 ft | 208 kts | 288° |
| 2026-04-16 00:14 | 26.05736 | 127.64511 | 2035 ft | 185 kts | 332° |
| 2026-04-16 00:14 | 26.06893 | 127.63983 | 2015 ft | 172 kts | 345° |
| 2026-04-16 00:14 | 26.07985 | 127.63836 | 2047 ft | 149 kts | 359° |
| 2026-04-16 00:14 | 26.08984 | 127.63786 | 1857 ft | 141 kts | 355° |
| 2026-04-16 00:15 | 26.09950 | 127.63726 | 1580 ft | 135 kts | 359° |
| 2026-04-16 00:15 | 26.10861 | 127.63687 | 1400 ft | 129 kts | 358° |
| 2026-04-16 00:15 | 26.11760 | 127.63644 | 1230 ft | 129 kts | 358° |
| 2026-04-16 00:15 | 26.12643 | 127.63601 | 1051 ft | 129 kts | 358° |
| 2026-04-16 00:16 | 26.13553 | 127.63558 | 893 ft | 129 kts | 359° |
| 2026-04-16 00:16 | 26.14440 | 127.63517 | 725 ft | 129 kts | 358° |
| 2026-04-16 00:16 | 26.15339 | 127.63475 | 573 ft | 130 kts | 359° |
| 2026-04-16 00:16 | 26.16245 | 127.63432 | 396 ft | 130 kts | 359° |
| 2026-04-16 00:17 | 26.17148 | 127.63393 | 216 ft | 130 kts | 358° |
| 2026-04-16 00:17 | 26.18038 | 127.63346 | 49 ft | 126 kts | 358° |
| 2026-04-16 00:17 | 26.18833 | 127.63313 | 23 ft | 94 kts | 357° |
| 2026-04-16 00:17 | 26.19303 | 127.63281 | 24 ft | 42 kts | 358° |
| 2026-04-16 00:18 | 26.19558 | 127.63280 | 26 ft | 35 kts | 10° |
| 2026-04-16 00:18 | 26.19784 | 127.63366 | 28 ft | 34 kts | 25° |
| 2026-04-16 00:18 | 26.19994 | 127.63448 | 26 ft | 31 kts | 356° |
| 2026-04-16 00:18 | 26.20204 | 127.63435 | 25 ft | 26 kts | 358° |
| 2026-04-16 00:19 | 26.20301 | 127.63514 | 24 ft | 19 kts | 84° |
| 2026-04-16 00:19 | 26.20307 | 127.63674 | 27 ft | 22 kts | 87° |
| 2026-04-16 00:19 | 26.20315 | 127.63855 | 26 ft | 25 kts | 86° |
| 2026-04-16 00:19 | 26.20323 | 127.64054 | 27 ft | 27 kts | 87° |
| 2026-04-16 00:20 | 26.20331 | 127.64272 | 27 ft | 29 kts | 88° |
| 2026-04-16 00:20 | 26.20338 | 127.64482 | 25 ft | 21 kts | 89° |
| 2026-04-16 00:20 | 26.20345 | 127.64648 | 25 ft | 19 kts | 86° |
| 2026-04-16 00:20 | 26.20365 | 127.64771 | 28 ft | 13 kts | 50° |
| 2026-04-16 00:21 | 26.20420 | 127.64840 | 27 ft | 9 kts | 48° |
| 2026-04-16 00:21 | 26.20439 | 127.64863 | 27 ft | 0 kts | 46° |